Terminal Aerodrome Forecast
Issued by NWS Atlanta, GA

Home | Current Version | Previous Version | Text Only | Print | Product List | Glossary On
Versions: 1 2 3 4 5 6 7 8 9 10 11 12 13 14 15 16 17 18 19 20 21 22 23 24 25 26 27 28 29 30 31 32 33 34 35 36
000
FTUS42 KFFC 260932 AAB
TAFATL
TAF AMD
KATL 260932Z 2610/2712 00000KT P6SM SCT250
     FM261500 09003KT P6SM SCT200
     FM270000 11003KT P6SM SCT100
     FM270900 07003KT P6SM BKN080=

USA.gov is the U.S. government's official web portal to all federal, state and local government web resources and services.